createdAt,value
2023-01-06T00:00:49.704Z,1.00
2023-01-06T00:03:16.559Z,1.00
2023-01-06T00:05:43.374Z,1.00
2023-01-06T00:08:11.483Z,1.00
2023-01-06T00:10:38.304Z,1.00
2023-01-06T00:13:06.443Z,99.90
2023-01-06T00:15:34.015Z,99.90
2023-01-06T00:18:01.898Z,99.90
2023-01-06T00:20:29.157Z,99.90
2023-01-06T00:22:55.998Z,99.90
2023-01-06T00:25:24.868Z,99.90
2023-01-06T00:27:51.767Z,99.90
2023-01-06T00:30:18.624Z,99.90
2023-01-06T00:32:45.392Z,99.90
2023-01-06T00:35:12.419Z,99.90
2023-01-06T00:37:39.245Z,99.90
2023-01-06T00:40:06.558Z,99.90
2023-01-06T00:42:33.360Z,99.90
2023-01-06T00:45:00.179Z,99.90
2023-01-06T00:47:27.079Z,99.90
2023-01-06T00:49:53.864Z,1.00
2023-01-06T00:52:20.686Z,99.90
2023-01-06T00:54:47.475Z,1.00
2023-01-06T00:57:14.297Z,1.00
2023-01-06T00:59:41.177Z,1.00
2023-01-06T01:02:08.202Z,99.90
2023-01-06T01:04:35.712Z,99.90
2023-01-06T01:07:02.594Z,99.90
2023-01-06T01:09:31.240Z,99.90
2023-01-06T01:12:11.634Z,99.90
2023-01-06T01:14:51.077Z,99.90
2023-01-06T01:17:26.703Z,99.90
2023-01-06T01:19:55.804Z,99.90
2023-01-06T01:22:24.424Z,99.90
2023-01-06T01:24:51.563Z,99.90
2023-01-06T01:27:19.567Z,99.90
2023-01-06T01:29:46.335Z,99.90
2023-01-06T01:32:13.144Z,99.90
2023-01-06T01:34:39.989Z,99.90
2023-01-06T01:37:06.857Z,99.90
2023-01-06T01:39:33.814Z,99.90
2023-01-06T01:42:00.760Z,99.90
2023-01-06T01:45:00.220Z,99.90
2023-01-06T01:47:35.496Z,99.90
2023-01-06T01:50:14.399Z,99.90
2023-01-06T01:52:42.576Z,99.90
2023-01-06T01:55:09.535Z,99.90
2023-01-06T01:58:01.210Z,99.90
2023-01-06T02:00:28.514Z,99.90
2023-01-06T02:02:56.133Z,99.90
2023-01-06T02:05:25.944Z,99.90
2023-01-06T02:07:53.986Z,99.90
2023-01-06T02:10:22.567Z,99.90
2023-01-06T02:12:52.151Z,99.90
2023-01-06T02:15:28.646Z,99.90
2023-01-06T02:18:01.560Z,99.90
2023-01-06T02:20:44.654Z,99.90
2023-01-06T02:23:23.533Z,99.90
2023-01-06T02:26:18.233Z,1.00
2023-01-06T02:29:14.620Z,1.00
2023-01-06T02:31:57.118Z,1.00
2023-01-06T02:35:01.433Z,1.00
2023-01-06T02:37:40.805Z,1.00
2023-01-06T02:40:35.243Z,1.00
2023-01-06T02:43:04.970Z,1.00
2023-01-06T02:45:34.803Z,1.00
2023-01-06T02:48:13.687Z,1.00
2023-01-06T02:50:43.349Z,1.00
2023-01-06T02:53:31.940Z,1.00
2023-01-06T02:55:59.022Z,1.00
2023-01-06T02:58:38.528Z,1.00
2023-01-06T03:01:13.710Z,1.00
2023-01-06T03:03:43.509Z,1.00
2023-01-06T03:06:16.209Z,1.00
2023-01-06T03:08:46.744Z,1.00
2023-01-06T03:11:14.109Z,1.00
2023-01-06T03:13:51.281Z,1.00
2023-01-06T03:16:18.297Z,1.00
2023-01-06T03:18:46.931Z,1.00
2023-01-06T03:21:16.783Z,1.00
2023-01-06T03:23:43.689Z,99.90
2023-01-06T03:26:10.422Z,99.90
2023-01-06T03:28:38.017Z,99.90
2023-01-06T03:31:18.612Z,99.90
2023-01-06T03:34:07.230Z,99.90
2023-01-06T03:36:49.671Z,99.90
2023-01-06T03:39:19.834Z,99.90
2023-01-06T03:42:16.681Z,99.90
2023-01-06T03:44:53.508Z,99.90
2023-01-06T03:48:09.706Z,99.90
2023-01-06T03:50:41.301Z,99.90
2023-01-06T03:53:29.435Z,99.90
2023-01-06T03:56:13.002Z,99.90
2023-01-06T03:58:47.251Z,99.90
2023-01-06T04:01:15.108Z,46.00
2023-01-06T04:03:45.274Z,1.00
2023-01-06T04:06:12.285Z,1.00
2023-01-06T04:08:39.080Z,1.00
2023-01-06T04:11:05.936Z,1.00
2023-01-06T04:13:32.706Z,1.00
2023-01-06T04:15:59.553Z,1.00
2023-01-06T04:18:26.369Z,1.00
2023-01-06T04:20:53.184Z,41.80
2023-01-06T04:23:20.001Z,5.10
2023-01-06T04:25:46.952Z,33.10
2023-01-06T04:28:13.723Z,14.20
2023-01-06T04:30:40.564Z,38.00
2023-01-06T04:33:07.328Z,58.90
2023-01-06T04:35:34.555Z,99.90
2023-01-06T04:38:03.340Z,99.90
2023-01-06T04:40:30.135Z,99.90
2023-01-06T04:43:06.083Z,77.40
2023-01-06T04:45:34.971Z,99.90
2023-01-06T04:48:02.169Z,99.90
2023-01-06T04:50:28.964Z,99.90
2023-01-06T04:52:55.883Z,99.90
2023-01-06T04:55:22.817Z,99.90
2023-01-06T04:57:49.717Z,99.90
2023-01-06T05:00:16.996Z,99.90
2023-01-06T05:02:44.315Z,99.90
2023-01-06T05:05:11.978Z,99.90
2023-01-06T05:07:38.806Z,99.90
2023-01-06T05:10:07.352Z,99.90
2023-01-06T05:12:37.287Z,99.90
2023-01-06T05:15:05.294Z,99.90
2023-01-06T05:17:32.207Z,99.90
2023-01-06T05:19:58.959Z,99.90
2023-01-06T05:22:25.751Z,99.90
2023-01-06T05:24:52.597Z,1.00
2023-01-06T05:27:19.406Z,1.00
2023-01-06T05:29:46.683Z,1.00
2023-01-06T05:32:13.793Z,1.00
2023-01-06T05:34:40.620Z,1.00
2023-01-06T05:37:07.450Z,1.00
2023-01-06T05:39:34.216Z,1.00
2023-01-06T05:42:01.208Z,1.00
2023-01-06T05:44:28.019Z,1.00
2023-01-06T05:46:54.832Z,1.00
2023-01-06T05:49:21.948Z,1.00
2023-01-06T05:51:49.227Z,1.00
2023-01-06T05:54:16.074Z,1.00
2023-01-06T05:56:48.099Z,1.00
2023-01-06T05:59:14.874Z,1.00
2023-01-06T06:01:41.846Z,1.00
2023-01-06T06:04:08.697Z,1.00
2023-01-06T06:06:35.544Z,1.00
2023-01-06T06:09:05.093Z,1.00
2023-01-06T06:11:31.867Z,1.00
2023-01-06T06:13:58.732Z,1.00
2023-01-06T06:16:27.384Z,1.00
2023-01-06T06:18:56.186Z,1.00
2023-01-06T06:21:26.247Z,1.00
2023-01-06T06:23:54.352Z,1.00
2023-01-06T06:26:21.710Z,1.00
2023-01-06T06:28:49.122Z,1.00
2023-01-06T06:31:22.641Z,1.00
2023-01-06T06:33:51.620Z,1.00
2023-01-06T06:36:18.861Z,1.00
2023-01-06T06:38:47.649Z,72.50
2023-01-06T06:41:15.088Z,99.90
2023-01-06T06:43:42.398Z,99.90
2023-01-06T06:46:09.673Z,1.00
2023-01-06T06:48:36.846Z,1.00
2023-01-06T06:51:12.549Z,1.00
2023-01-06T06:53:39.839Z,1.00
2023-01-06T06:56:07.800Z,1.00
2023-01-06T06:58:35.636Z,1.00
2023-01-06T07:01:11.835Z,1.00
2023-01-06T07:03:39.210Z,1.00
2023-01-06T07:06:13.803Z,37.90
2023-01-06T07:08:44.735Z,67.10
2023-01-06T07:11:11.690Z,99.90
2023-01-06T07:13:38.565Z,99.90
2023-01-06T07:16:06.060Z,1.00
2023-01-06T07:18:33.181Z,1.00
2023-01-06T07:21:00.135Z,1.00
2023-01-06T07:23:26.963Z,1.00
2023-01-06T07:26:00.202Z,99.90
2023-01-06T07:28:30.754Z,1.00
2023-01-06T07:30:57.752Z,1.00
2023-01-06T07:33:24.662Z,1.00
2023-01-06T07:35:55.768Z,1.00
2023-01-06T07:38:23.224Z,1.00
2023-01-06T07:40:50.556Z,1.00
2023-01-06T07:43:17.607Z,1.00
2023-01-06T07:45:47.430Z,1.00
2023-01-06T07:48:14.247Z,99.90
2023-01-06T07:50:41.124Z,99.90
2023-01-06T07:53:09.144Z,99.90
2023-01-06T07:55:35.979Z,99.90
2023-01-06T07:58:07.142Z,99.90
2023-01-06T08:00:34.770Z,99.90
2023-01-06T08:03:06.371Z,99.90
2023-01-06T08:05:33.622Z,99.90
2023-01-06T08:08:00.603Z,99.90
2023-01-06T08:10:27.407Z,99.90
2023-01-06T08:12:54.301Z,99.90
2023-01-06T08:15:21.248Z,99.90
2023-01-06T08:17:48.010Z,99.90
2023-01-06T08:20:15.008Z,99.90
2023-01-06T08:22:41.848Z,99.90
2023-01-06T08:25:09.080Z,99.90
2023-01-06T08:27:38.207Z,99.90
2023-01-06T08:30:05.523Z,99.90
2023-01-06T08:32:32.439Z,61.20
2023-01-06T08:34:59.250Z,1.00
2023-01-06T08:37:26.080Z,1.00
2023-01-06T08:39:52.939Z,1.00
2023-01-06T08:42:19.943Z,1.00
2023-01-06T08:44:47.346Z,19.20
2023-01-06T08:47:14.214Z,32.60
2023-01-06T08:49:41.032Z,2.30
2023-01-06T08:52:07.864Z,1.00
2023-01-06T08:54:34.729Z,1.00
2023-01-06T08:57:01.599Z,1.00
2023-01-06T08:59:28.625Z,1.00
2023-01-06T09:01:55.610Z,1.00
2023-01-06T09:04:24.092Z,1.00
2023-01-06T09:06:51.294Z,1.00
2023-01-06T09:09:18.149Z,1.00
2023-01-06T09:11:46.048Z,1.00
2023-01-06T09:14:14.255Z,1.00
2023-01-06T09:16:41.867Z,1.00
2023-01-06T09:19:10.495Z,1.00
2023-01-06T09:21:37.578Z,1.00
2023-01-06T09:24:04.708Z,1.00
2023-01-06T09:26:31.579Z,1.00
2023-01-06T09:28:58.526Z,1.00
2023-01-06T09:31:26.920Z,1.00
2023-01-06T09:33:54.301Z,1.00
2023-01-06T09:36:22.029Z,99.90
2023-01-06T09:38:49.078Z,99.90
2023-01-06T09:41:31.158Z,1.00
2023-01-06T09:44:17.618Z,1.00
2023-01-06T09:46:46.833Z,99.90
2023-01-06T09:49:28.472Z,99.90
2023-01-06T09:52:03.751Z,99.90
2023-01-06T09:54:34.096Z,99.90
2023-01-06T09:57:12.097Z,99.90
2023-01-06T09:59:55.553Z,1.00
2023-01-06T10:02:40.308Z,99.90
2023-01-06T10:05:48.869Z,99.90
2023-01-06T10:08:28.619Z,93.20
2023-01-06T10:11:30.854Z,1.00
2023-01-06T10:14:18.894Z,81.00
2023-01-06T10:16:54.669Z,29.00
2023-01-06T10:19:30.757Z,13.70
2023-01-06T10:22:06.617Z,1.00
2023-01-06T10:24:52.303Z,43.70
2023-01-06T10:27:32.886Z,99.90
2023-01-06T10:30:00.444Z,99.90
2023-01-06T10:32:31.783Z,99.90
2023-01-06T10:34:59.040Z,99.90
2023-01-06T10:37:32.312Z,99.90
2023-01-06T10:40:22.959Z,99.90
2023-01-06T10:43:04.073Z,99.90
2023-01-06T10:45:42.753Z,99.90
2023-01-06T10:48:15.713Z,99.90
2023-01-06T10:50:42.654Z,99.90
2023-01-06T10:53:14.391Z,99.90
2023-01-06T10:55:51.844Z,37.70
2023-01-06T10:58:35.709Z,1.00
2023-01-06T11:01:12.734Z,1.00
2023-01-06T11:03:43.378Z,1.00
2023-01-06T11:06:28.608Z,1.00
2023-01-06T11:08:55.870Z,1.00
2023-01-06T11:11:28.219Z,99.90
2023-01-06T11:13:57.997Z,99.90
2023-01-06T11:16:29.831Z,1.00
2023-01-06T11:19:06.060Z,99.90
2023-01-06T11:21:39.552Z,99.90
2023-01-06T11:24:17.188Z,99.90
2023-01-06T11:27:14.795Z,99.90
2023-01-06T11:29:41.599Z,99.90
2023-01-06T11:32:20.597Z,1.00
2023-01-06T11:34:57.529Z,1.00
2023-01-06T11:37:36.406Z,1.00
2023-01-06T11:40:11.316Z,1.00
2023-01-06T11:45:36.733Z,1.00
2023-01-06T11:48:07.191Z,1.00
2023-01-06T11:50:34.197Z,1.00
2023-01-06T11:53:04.601Z,1.00
2023-01-06T11:55:31.663Z,1.00
2023-01-06T11:58:11.952Z,1.00
2023-01-06T12:00:46.036Z,1.00
2023-01-06T12:03:22.105Z,1.00
2023-01-06T12:06:13.427Z,1.00
2023-01-06T12:08:43.169Z,1.00
2023-01-06T12:11:22.306Z,1.00
2023-01-06T12:14:10.603Z,1.00
2023-01-06T12:16:49.571Z,1.00
2023-01-06T12:19:33.398Z,1.00
2023-01-06T12:22:00.651Z,1.00
2023-01-06T12:24:28.807Z,77.00
2023-01-06T12:26:56.168Z,1.00
2023-01-06T12:29:23.471Z,25.90
2023-01-06T12:31:56.396Z,1.00
2023-01-06T12:34:28.752Z,2.00
2023-01-06T12:37:02.184Z,1.00
2023-01-06T12:39:36.865Z,99.90
2023-01-06T12:42:08.274Z,99.90
2023-01-06T12:44:41.356Z,28.10
2023-01-06T12:47:14.858Z,1.00
2023-01-06T12:49:44.366Z,22.20
2023-01-06T12:52:18.555Z,30.60
2023-01-06T12:54:51.835Z,1.90
2023-01-06T12:57:24.628Z,1.00
2023-01-06T13:00:00.453Z,56.00
2023-01-06T13:02:49.458Z,1.00
2023-01-06T13:05:36.546Z,1.00
2023-01-06T13:08:17.655Z,1.00
2023-01-06T13:11:03.602Z,1.00
2023-01-06T13:13:50.126Z,1.00
2023-01-06T13:16:39.144Z,99.90
2023-01-06T13:19:14.972Z,99.90
2023-01-06T13:21:42.858Z,99.90
2023-01-06T13:24:31.339Z,99.90
2023-01-06T13:27:20.187Z,99.90
2023-01-06T13:29:53.118Z,99.90
2023-01-06T13:32:39.226Z,99.90
2023-01-06T13:35:28.837Z,1.00
2023-01-06T13:38:33.147Z,1.00
2023-01-06T13:41:02.343Z,1.00
2023-01-06T13:43:30.860Z,1.00
2023-01-06T13:46:00.738Z,1.00
2023-01-06T13:48:36.585Z,1.00
2023-01-06T13:51:05.465Z,1.00
2023-01-06T13:53:43.360Z,1.00
2023-01-06T13:56:13.151Z,1.00
2023-01-06T13:58:41.536Z,1.00
2023-01-06T14:01:12.780Z,1.00
2023-01-06T14:03:41.357Z,1.00
2023-01-06T14:06:38.453Z,1.00
2023-01-06T14:09:17.708Z,9.60
2023-01-06T14:11:44.923Z,1.00
2023-01-06T14:14:28.405Z,1.00
2023-01-06T14:16:56.384Z,1.00
2023-01-06T14:19:34.379Z,1.00
2023-01-06T14:22:19.047Z,1.00
2023-01-06T14:24:51.738Z,1.00
2023-01-06T14:27:47.068Z,99.90
2023-01-06T14:30:21.354Z,99.90
2023-01-06T14:32:48.338Z,99.90
2023-01-06T14:35:17.743Z,99.90
2023-01-06T14:37:50.850Z,99.90
2023-01-06T14:40:30.074Z,99.90
2023-01-06T14:43:03.672Z,99.90
2023-01-06T14:45:36.898Z,99.90
2023-01-06T14:48:10.799Z,99.90
2023-01-06T14:50:47.500Z,99.90
2023-01-06T14:53:32.200Z,1.00
2023-01-06T14:56:00.318Z,99.90
2023-01-06T14:58:27.093Z,99.90
2023-01-06T15:00:53.971Z,99.90
2023-01-06T15:03:26.646Z,99.90
2023-01-06T15:06:19.732Z,99.90
2023-01-06T15:08:47.021Z,99.90
2023-01-06T15:11:24.944Z,99.90
2023-01-06T15:13:52.073Z,99.90
2023-01-06T15:16:27.311Z,99.90
2023-01-06T15:18:55.046Z,99.90
2023-01-06T15:21:22.517Z,99.90
2023-01-06T15:23:51.835Z,99.90
2023-01-06T15:26:21.231Z,99.90
2023-01-06T15:29:04.882Z,99.90
2023-01-06T15:31:36.840Z,99.90
2023-01-06T15:34:09.477Z,99.90
2023-01-06T15:36:37.912Z,99.90
2023-01-06T15:39:05.236Z,99.90
2023-01-06T15:41:33.598Z,99.90
2023-01-06T15:44:01.695Z,99.90
2023-01-06T15:46:37.884Z,99.90
2023-01-06T15:49:05.371Z,99.90
2023-01-06T15:51:32.621Z,99.90
2023-01-06T15:53:59.722Z,99.90
2023-01-06T15:56:28.897Z,99.90
2023-01-06T15:58:56.627Z,99.90
2023-01-06T16:01:24.126Z,99.90
2023-01-06T16:03:53.695Z,99.90
2023-01-06T16:06:29.016Z,99.90
2023-01-06T16:09:30.937Z,99.90
2023-01-06T16:12:15.732Z,99.90
2023-01-06T16:15:01.903Z,99.90
2023-01-06T16:17:31.691Z,1.00
2023-01-06T16:20:01.455Z,1.00
2023-01-06T16:22:38.069Z,1.00
2023-01-06T16:25:08.887Z,1.00
2023-01-06T16:27:35.979Z,1.00
2023-01-06T16:30:15.167Z,1.00
2023-01-06T16:32:43.268Z,3.70
2023-01-06T16:35:15.940Z,44.80
2023-01-06T16:37:43.290Z,99.90
2023-01-06T16:40:14.375Z,99.90
2023-01-06T16:42:44.501Z,99.90
2023-01-06T16:45:39.704Z,99.90
2023-01-06T16:48:06.788Z,99.90
2023-01-06T16:50:40.391Z,99.90
2023-01-06T16:53:10.362Z,99.90
2023-01-06T16:55:38.656Z,99.90
2023-01-06T16:58:19.939Z,99.90
2023-01-06T17:00:52.677Z,99.90
2023-01-06T17:03:23.344Z,99.90
2023-01-06T17:05:53.960Z,99.90
2023-01-06T17:08:37.118Z,99.90
2023-01-06T17:11:16.768Z,99.90
2023-01-06T17:13:51.592Z,99.90
2023-01-06T17:16:21.467Z,1.00
2023-01-06T17:18:53.970Z,1.00
2023-01-06T17:21:25.072Z,1.00
2023-01-06T17:24:04.918Z,1.00
2023-01-06T17:26:31.813Z,1.00
2023-01-06T17:28:59.793Z,1.00
2023-01-06T17:31:32.143Z,1.00
2023-01-06T17:34:06.806Z,1.00
2023-01-06T17:36:45.176Z,1.00
2023-01-06T17:39:27.667Z,1.00
2023-01-06T17:42:14.412Z,1.00
2023-01-06T17:44:47.056Z,1.00
2023-01-06T17:47:17.102Z,1.00
2023-01-06T17:49:48.487Z,1.00
2023-01-06T17:52:28.553Z,1.00
2023-01-06T17:55:20.513Z,1.00
2023-01-06T17:57:47.621Z,1.00
2023-01-06T18:00:34.423Z,1.00
2023-01-06T18:03:04.166Z,1.00
2023-01-06T18:05:32.673Z,1.00
2023-01-06T18:08:11.134Z,1.00
2023-01-06T18:10:40.002Z,1.00
2023-01-06T18:13:39.694Z,1.00
2023-01-06T18:16:13.111Z,1.00
2023-01-06T18:18:41.197Z,1.00
2023-01-06T18:21:13.849Z,1.00
2023-01-06T18:23:43.134Z,1.00
2023-01-06T18:26:28.372Z,1.00
2023-01-06T18:29:01.773Z,1.00
2023-01-06T18:31:34.132Z,1.00
2023-01-06T18:34:16.638Z,1.00
2023-01-06T18:36:45.299Z,1.00
2023-01-06T18:39:13.507Z,1.00
2023-01-06T18:41:40.413Z,1.00
2023-01-06T18:44:16.196Z,1.00
2023-01-06T18:46:43.047Z,1.00
2023-01-06T18:49:14.630Z,1.00
2023-01-06T18:51:42.575Z,1.00
2023-01-06T18:54:15.548Z,1.00
2023-01-06T18:56:42.356Z,1.00
2023-01-06T18:59:18.524Z,1.00
2023-01-06T19:01:48.234Z,1.00
2023-01-06T19:04:29.464Z,1.00
2023-01-06T19:07:03.665Z,1.00
2023-01-06T19:09:33.977Z,1.00
2023-01-06T19:12:02.551Z,1.00
2023-01-06T19:14:33.264Z,99.90
2023-01-06T19:17:00.138Z,99.90
2023-01-06T19:19:37.811Z,99.90
2023-01-06T19:22:22.725Z,99.90
2023-01-06T19:24:51.103Z,99.90
2023-01-06T19:27:36.080Z,99.90
2023-01-06T19:30:23.220Z,99.90
2023-01-06T19:32:50.067Z,99.90
2023-01-06T19:35:29.536Z,99.90
2023-01-06T19:38:05.931Z,1.00
2023-01-06T19:40:36.106Z,1.00
2023-01-06T19:43:11.736Z,1.00
2023-01-06T19:45:38.616Z,1.00
2023-01-06T19:48:37.640Z,1.00
2023-01-06T19:51:22.653Z,99.90
2023-01-06T19:54:25.268Z,99.90
2023-01-06T19:56:53.757Z,99.90
2023-01-06T19:59:40.862Z,99.90
2023-01-06T20:02:07.873Z,99.90
2023-01-06T20:04:35.009Z,99.90
2023-01-06T20:07:02.445Z,99.90
2023-01-06T20:09:30.571Z,99.90
2023-01-06T20:11:58.845Z,99.90
2023-01-06T20:14:25.613Z,99.90
2023-01-06T20:16:52.501Z,99.90
2023-01-06T20:19:21.564Z,99.90
2023-01-06T20:21:48.772Z,99.90
2023-01-06T20:24:15.785Z,99.90
2023-01-06T20:26:43.200Z,99.90
2023-01-06T20:29:10.396Z,99.90
2023-01-06T20:31:37.764Z,99.90
2023-01-06T20:34:04.962Z,99.90
2023-01-06T20:36:31.852Z,99.90
2023-01-06T20:38:58.799Z,99.90
2023-01-06T20:41:25.744Z,99.90
2023-01-06T20:43:52.646Z,99.90
2023-01-06T20:46:19.839Z,99.90
2023-01-06T20:48:47.918Z,99.90
2023-01-06T20:51:15.031Z,99.90
2023-01-06T20:53:42.000Z,99.90
2023-01-06T20:56:08.908Z,99.90
2023-01-06T20:58:35.761Z,99.90
2023-01-06T21:01:02.744Z,99.90
2023-01-06T21:03:29.685Z,99.90
2023-01-06T21:05:56.490Z,99.90
2023-01-06T21:08:23.376Z,99.90
2023-01-06T21:10:50.340Z,99.90
2023-01-06T21:13:17.248Z,99.90
2023-01-06T21:15:44.233Z,99.90
2023-01-06T21:18:11.170Z,99.90
2023-01-06T21:20:38.116Z,99.90
2023-01-06T21:23:05.002Z,93.60
2023-01-06T21:25:32.040Z,79.70
2023-01-06T21:27:59.044Z,80.10
2023-01-06T21:30:28.381Z,61.70
2023-01-06T21:32:55.352Z,68.50
2023-01-06T21:35:22.287Z,50.00
2023-01-06T21:37:49.191Z,74.30
2023-01-06T21:40:16.207Z,89.00
2023-01-06T21:43:02.057Z,99.90
2023-01-06T21:45:29.099Z,99.90
2023-01-06T21:47:56.144Z,99.90
2023-01-06T21:50:26.015Z,99.90
2023-01-06T21:52:53.960Z,99.90
2023-01-06T21:55:20.942Z,99.90
2023-01-06T21:57:48.255Z,99.90
2023-01-06T22:00:15.418Z,99.90
2023-01-06T22:02:42.603Z,99.90
2023-01-06T22:05:09.841Z,99.90
2023-01-06T22:07:40.059Z,99.90
2023-01-06T22:10:14.084Z,99.90
2023-01-06T22:12:41.952Z,99.90
2023-01-06T22:15:09.774Z,99.90
2023-01-06T22:17:36.805Z,99.90
2023-01-06T22:20:04.784Z,99.90
2023-01-06T22:22:33.181Z,99.90
2023-01-06T22:25:00.558Z,99.90
2023-01-06T22:27:27.438Z,99.90
2023-01-06T22:29:54.296Z,99.90
2023-01-06T22:32:21.171Z,77.00
2023-01-06T22:34:48.505Z,28.80
2023-01-06T22:37:15.364Z,15.30
2023-01-06T22:39:44.072Z,37.30
2023-01-06T22:42:11.132Z,54.10
2023-01-06T22:44:37.978Z,25.10
2023-01-06T22:47:05.098Z,16.30
2023-01-06T22:49:32.001Z,5.10
2023-01-06T22:51:58.921Z,7.70
2023-01-06T22:54:26.222Z,22.90
2023-01-06T22:56:53.057Z,48.00
2023-01-06T22:59:20.161Z,33.20
2023-01-06T23:01:47.268Z,13.10
2023-01-06T23:04:14.977Z,9.50
2023-01-06T23:06:42.217Z,19.50
2023-01-06T23:09:09.071Z,2.60
2023-01-06T23:11:41.561Z,22.00
2023-01-06T23:14:10.001Z,42.00
2023-01-06T23:16:38.143Z,21.10
2023-01-06T23:19:05.409Z,51.00
2023-01-06T23:21:33.571Z,79.90
2023-01-06T23:24:01.488Z,63.20
2023-01-06T23:26:34.876Z,97.20
2023-01-06T23:29:01.898Z,94.50
2023-01-06T23:31:31.325Z,45.00
2023-01-06T23:34:00.841Z,31.30
2023-01-06T23:36:30.770Z,9.10
2023-01-06T23:38:59.002Z,4.80
2023-01-06T23:41:28.657Z,5.10
2023-01-06T23:43:56.121Z,21.40
2023-01-06T23:46:28.285Z,10.00
2023-01-06T23:48:55.519Z,16.20
2023-01-06T23:51:22.680Z,8.50
2023-01-06T23:53:49.966Z,9.30
2023-01-06T23:56:19.413Z,8.80
2023-01-06T23:58:47.680Z,25.90
